Time;durP1;ratioP1;P1;durP2;ratioP2;P2;SDS_P1;SDS_P2;PMS_P1;PMS_P2;Temp;Humidity;BMP_temperature;BMP_pressure;BME280_temperature;BME280_humidity;BME280_pressure;Samples;Min_cycle;Max_cycle;Signal;HPM_P1;HPM_P2
2023/03/29 00:01:46;;;;;;;7.03;2.30;;;;;;;-146.27;95.53;84280.94;5090869;28;20126;-66
2023/03/29 00:04:12;;;;;;;8.75;2.65;;;;;;;-146.27;94.47;84280.94;5079905;28;20423;-66
2023/03/29 00:06:38;;;;;;;5.70;2.78;;;;;;;-146.27;93.84;84280.94;5079358;28;20027;-67
2023/03/29 00:09:04;;;;;;;5.15;2.13;;;;;;;-146.27;93.12;84254.81;5087622;28;20044;-65
2023/03/29 00:11:30;;;;;;;6.22;2.83;;;;;;;-146.27;93.44;84264.88;5086469;28;20020;-67
2023/03/29 00:13:55;;;;;;;5.32;2.53;;;;;;;-146.27;93.46;84234.72;5079514;28;20012;-66
2023/03/29 00:16:21;;;;;;;4.05;2.28;;;;;;;-146.27;92.84;84262.84;5072881;28;20038;-65
2023/03/29 00:18:47;;;;;;;4.05;2.22;;;;;;;-146.27;92.24;84280.94;5085312;28;20023;-67
2023/03/29 00:21:12;;;;;;;6.95;2.40;;;;;;;-146.27;92.25;84260.84;5083766;28;20043;-65
2023/03/29 00:23:37;;;;;;;4.32;2.42;;;;;;;-146.27;92.68;84305.06;5081808;28;20020;-66
2023/03/29 00:26:03;;;;;;;3.38;2.60;;;;;;;-146.27;92.79;84276.94;5086460;28;20104;-65
2023/03/29 00:28:28;;;;;;;5.00;2.63;;;;;;;-146.27;93.31;84240.75;5085518;28;20032;-66
2023/03/29 00:31:06;;;;;;;2.90;2.17;;;;;;;-146.27;94.15;84196.53;5071438;28;20111;-66
2023/03/29 00:33:31;;;;;;;8.75;2.83;;;;;;;-146.27;95.75;84272.91;5078104;28;20483;-66
2023/03/29 00:35:57;;;;;;;5.25;2.88;;;;;;;-146.27;96.20;84284.97;5084216;28;20024;-67
2023/03/29 00:38:22;;;;;;;7.28;2.40;;;;;;;-146.27;96.54;84266.88;5081128;28;20028;-67
2023/03/29 00:40:47;;;;;;;6.80;2.83;;;;;;;-146.27;96.81;84284.97;5090131;28;20478;-67
2023/03/29 00:43:14;;;;;;;5.20;2.70;;;;;;;-146.27;97.01;84309.06;5087510;28;20028;-68
2023/03/29 00:45:40;;;;;;;6.13;3.08;;;;;;;-146.27;97.01;84256.81;5092051;28;20022;-67
2023/03/29 00:48:09;;;;;;;3.85;2.45;;;;;;;-146.27;96.00;84208.59;5089037;28;20028;-66
2023/03/29 00:50:47;;;;;;;8.68;3.25;;;;;;;-146.27;96.16;84250.78;5084730;28;20108;-67
2023/03/29 00:53:34;;;;;;;5.60;2.90;;;;;;;-146.27;96.13;84276.94;5082967;28;20029;-68
2023/03/29 00:56:13;;;;;;;6.65;2.60;;;;;;;-146.27;95.75;84228.69;5087201;28;20373;-67
2023/03/29 00:58:50;;;;;;;5.47;3.38;;;;;;;-146.27;96.27;84276.94;5079350;28;20384;-67
2023/03/29 01:01:32;;;;;;;5.47;3.15;;;;;;;-146.27;96.22;84250.78;5092232;28;20402;-67
2023/03/29 01:04:07;;;;;;;8.98;2.92;;;;;;;-146.27;96.76;84218.63;5081948;28;20111;-66
2023/03/29 01:06:35;;;;;;;5.18;3.17;;;;;;;-146.27;96.29;84268.88;5083374;28;20103;-68
2023/03/29 01:09:06;;;;;;;6.95;2.97;;;;;;;-146.27;96.47;84238.75;5084089;28;20404;-67
2023/03/29 01:11:45;;;;;;;8.52;3.17;;;;;;;-146.27;96.52;84224.66;5090814;28;20111;-67
2023/03/29 01:14:29;;;;;;;6.07;2.67;;;;;;;-146.27;96.24;84192.50;5084426;28;20742;-67
2023/03/29 01:16:55;;;;;;;;;;;;;;;-146.27;96.24;84208.59;5084431;28;20115;-67
2023/03/29 01:19:26;;;;;;;5.22;3.20;;;;;;;-146.27;96.12;84240.75;5079965;28;20041;-67
2023/03/29 01:22:12;;;;;;;5.97;3.47;;;;;;;-146.27;96.41;84272.91;5091171;28;20106;-67
2023/03/29 01:25:25;;;;;;;4.93;2.95;;;;;;;-146.27;96.05;84246.78;5089066;28;20074;-67
2023/03/29 01:27:59;;;;;;;5.47;2.60;;;;;;;-146.27;95.90;84224.66;5083168;28;20483;-67
2023/03/29 01:30:32;;;;;;;6.20;2.95;;;;;;;-146.27;95.89;84206.59;5088794;28;20468;-67
2023/03/29 01:33:09;;;;;;;6.15;3.00;;;;;;;-146.27;96.00;84224.66;5089036;28;20020;-66
2023/03/29 01:36:00;;;;;;;5.65;2.80;;;;;;;-146.27;95.56;84206.59;5090361;28;20637;-65
2023/03/29 01:38:33;;;;;;;6.40;3.53;;;;;;;-146.27;94.88;84206.59;5075081;28;20089;-67
2023/03/29 01:40:58;;;;;;;6.35;3.22;;;;;;;-146.27;95.19;84198.53;5082056;28;20036;-65
2023/03/29 01:43:30;;;;;;;8.52;3.28;;;;;;;-146.27;95.62;84190.50;5088199;28;20025;-66
2023/03/29 01:46:17;;;;;;;7.68;3.42;;;;;;;-146.27;95.85;84200.56;5089717;28;20031;-67
2023/03/29 01:48:57;;;;;;;8.02;3.25;;;;;;;-146.27;95.88;84196.53;5086540;28;20020;-66
2023/03/29 01:51:33;;;;;;;5.82;2.83;;;;;;;-146.27;95.83;84178.44;5087264;28;20103;-67
2023/03/29 01:54:16;;;;;;;7.30;3.30;;;;;;;-146.27;96.44;84210.59;5083332;28;20132;-67
2023/03/29 01:56:44;;;;;;;8.20;3.28;;;;;;;-146.27;96.41;84176.44;5093510;28;20213;-67
2023/03/29 01:59:14;;;;;;;6.78;3.15;;;;;;;-146.27;96.75;84208.59;5088729;28;20035;-67
2023/03/29 02:01:47;;;;;;;11.35;3.40;;;;;;;-146.27;96.58;84168.41;5091387;28;20111;-66
2023/03/29 02:04:19;;;;;;;7.30;3.45;;;;;;;-146.27;96.92;84196.53;5090864;28;20032;-67
2023/03/29 02:06:45;;;;;;;7.05;3.13;;;;;;;-146.27;97.10;84184.47;5083228;28;20034;-66
2023/03/29 02:09:11;;;;;;;5.60;3.17;;;;;;;-146.27;97.19;84180.47;5089225;28;20135;-67
2023/03/29 02:11:40;;;;;;;5.80;2.80;;;;;;;-146.27;97.80;84178.44;5084527;28;20027;-67
2023/03/29 02:14:06;;;;;;;4.80;3.10;;;;;;;-146.27;98.16;84200.56;5087866;28;20020;-67
2023/03/29 02:16:36;;;;;;;6.82;3.03;;;;;;;-146.27;97.79;84168.41;5090999;28;20031;-67
2023/03/29 02:19:02;;;;;;;6.03;3.78;;;;;;;-146.27;98.25;84184.47;5082643;28;20507;-66
2023/03/29 02:21:43;;;;;;;13.25;3.17;;;;;;;-146.27;98.67;84216.63;5089039;28;20032;-66
2023/03/29 02:24:12;;;;;;;6.38;3.20;;;;;;;-146.27;99.13;84200.56;5087102;28;21449;-66
2023/03/29 02:26:37;;;;;;;6.93;3.10;;;;;;;-146.27;99.16;84186.47;5087850;28;20021;-67
2023/03/29 02:29:03;;;;;;;6.00;3.20;;;;;;;-146.27;99.55;84180.47;5079610;28;20055;-67
2023/03/29 02:31:37;;;;;;;7.32;3.42;;;;;;;-146.27;99.48;84180.47;5093789;28;20019;-67
2023/03/29 02:34:06;;;;;;;;;;;;;;;-146.27;99.47;84154.34;5084259;28;20148;-66
2023/03/29 02:36:45;;;;;;;7.97;3.67;;;;;;;-146.27;99.90;84206.59;5090914;28;19912;-67
2023/03/29 02:39:14;;;;;;;6.35;3.30;;;;;;;-146.27;99.78;84176.44;5083243;28;20024;-67
2023/03/29 02:41:42;;;;;;;8.25;4.18;;;;;;;-146.27;99.53;84148.31;5091671;28;20071;-68
2023/03/29 02:44:12;;;;;;;9.70;3.13;;;;;;;-146.27;99.54;84180.47;5084098;28;20035;-66
2023/03/29 02:46:41;;;;;;;4.35;3.13;;;;;;;-146.27;99.99;84190.50;5081591;28;20028;-66
2023/03/29 02:49:08;;;;;;;6.40;3.38;;;;;;;-146.27;99.57;84164.38;5079750;28;20118;-67
2023/03/29 02:51:35;;;;;;;8.27;4.13;;;;;;;-146.27;100.00;84172.41;5080381;28;20028;-66
2023/03/29 02:54:07;;;;;;;6.43;3.55;;;;;;;-146.27;100.00;84168.41;5087541;28;20464;-68
2023/03/29 02:56:47;;;;;;;6.88;3.28;;;;;;;-146.27;100.00;84164.38;5076718;28;20361;-67
2023/03/29 02:59:15;;;;;;;6.75;3.50;;;;;;;-146.27;100.00;84202.56;5086492;28;21133;-67
2023/03/29 03:01:43;;;;;;;11.15;3.33;;;;;;;-146.27;99.91;84174.44;5080445;28;20458;-66
2023/03/29 03:04:10;;;;;;;7.15;3.38;;;;;;;-146.27;99.87;84106.09;5078839;28;20063;-67
2023/03/29 03:06:37;;;;;;;7.40;3.50;;;;;;;-146.27;100.00;84116.16;5080609;28;20051;-67
2023/03/29 03:09:03;;;;;;;6.55;3.33;;;;;;;-146.27;99.91;84162.38;5086365;28;20036;-67
2023/03/29 03:11:29;;;;;;;7.88;3.58;;;;;;;-146.27;100.00;84140.25;5084671;28;20047;-67
2023/03/29 03:13:55;;;;;;;7.07;3.47;;;;;;;-146.27;100.00;84176.44;5081757;28;20456;-68
2023/03/29 03:16:21;;;;;;;7.13;3.80;;;;;;;-146.27;100.00;84174.44;5081106;28;20032;-67
2023/03/29 03:18:47;;;;;;;7.32;3.53;;;;;;;-146.27;100.00;84184.47;5084502;28;20024;-67
2023/03/29 03:21:12;;;;;;;8.65;4.45;;;;;;;-146.27;100.00;84156.34;5080787;28;20028;-68
2023/03/29 03:23:38;;;;;;;7.68;3.72;;;;;;;-146.27;100.00;84172.41;5081013;28;20494;-67
2023/03/29 03:26:04;;;;;;;10.52;3.67;;;;;;;-146.27;100.00;84196.53;5086070;28;20494;-66
2023/03/29 03:28:31;;;;;;;11.95;4.25;;;;;;;-146.27;100.00;84168.41;5086499;28;20032;-67
2023/03/29 03:30:56;;;;;;;6.70;3.80;;;;;;;-146.27;100.00;84190.50;5078992;28;20103;-67
2023/03/29 03:33:22;;;;;;;6.72;3.80;;;;;;;-146.27;100.00;84152.31;5089850;28;20158;-67
2023/03/29 03:35:47;;;;;;;6.90;3.95;;;;;;;-146.27;100.00;84176.44;5080111;28;20024;-67
2023/03/29 03:38:13;;;;;;;7.65;4.15;;;;;;;-146.27;100.00;84144.28;5076759;28;20413;-68
2023/03/29 03:40:38;;;;;;;8.50;3.95;;;;;;;-146.27;100.00;84168.41;5080708;28;20025;-67
2023/03/29 03:43:03;;;;;;;9.25;4.70;;;;;;;-146.27;100.00;84160.38;5079504;28;20029;-68
2023/03/29 03:45:30;;;;;;;7.00;4.05;;;;;;;-146.27;100.00;84160.38;5086862;28;20467;-67
2023/03/29 03:47:55;;;;;;;9.40;3.85;;;;;;;-146.27;100.00;84184.47;5084713;28;20024;-67
2023/03/29 03:50:20;;;;;;;8.30;4.07;;;;;;;-146.27;100.00;84176.44;5076015;28;21299;-67
2023/03/29 03:52:46;;;;;;;6.35;3.58;;;;;;;-146.27;100.00;84190.50;5085663;28;20483;-67
2023/03/29 03:55:11;;;;;;;8.23;4.00;;;;;;;-146.27;100.00;84128.22;5087535;28;20060;-66
2023/03/29 03:57:37;;;;;;;9.15;4.35;;;;;;;-146.27;100.00;84164.38;5078892;28;20043;-66
2023/03/29 04:00:18;;;;;;;9.63;4.50;;;;;;;-146.27;100.00;84144.28;5083096;28;20049;-67
2023/03/29 04:02:44;;;;;;;10.15;4.07;;;;;;;-146.27;100.00;84116.16;5081236;28;20024;-67
2023/03/29 04:05:10;;;;;;;11.32;4.10;;;;;;;-146.27;100.00;84172.41;5086338;28;20070;-68
2023/03/29 04:07:35;;;;;;;11.98;4.35;;;;;;;-146.27;100.00;84170.41;5075253;28;20496;-66
2023/03/29 04:10:00;;;;;;;11.75;4.03;;;;;;;-146.27;100.00;84128.22;5081962;28;20024;-67
2023/03/29 04:12:26;;;;;;;7.82;4.05;;;;;;;-146.27;100.00;84142.28;5081077;28;20120;-67
2023/03/29 04:14:51;;;;;;;6.93;4.50;;;;;;;-146.27;100.00;84134.22;5077036;28;20085;-67
2023/03/29 04:17:16;;;;;;;10.73;4.68;;;;;;;-146.27;100.00;84156.34;5073761;28;20032;-67
2023/03/29 04:19:42;;;;;;;10.05;4.13;;;;;;;-146.27;100.00;84116.16;5083936;28;20024;-67
2023/03/29 04:22:07;;;;;;;11.02;4.40;;;;;;;-146.27;100.00;84168.41;5088883;28;20118;-67
2023/03/29 04:24:33;;;;;;;11.43;4.93;;;;;;;-146.27;100.00;84144.28;5085820;28;20016;-67
2023/03/29 04:26:58;;;;;;;8.50;4.10;;;;;;;-146.27;100.00;84144.28;5078936;28;20069;-67
2023/03/29 04:29:23;;;;;;;15.02;5.18;;;;;;;-146.27;100.00;84144.28;5078357;28;20071;-67
2023/03/29 04:31:49;;;;;;;11.43;4.68;;;;;;;-146.27;100.00;84148.31;5088767;28;20024;-67
2023/03/29 04:34:14;;;;;;;12.80;5.00;;;;;;;-146.27;100.00;84136.25;5076717;28;20426;-67
2023/03/29 04:36:40;;;;;;;7.78;4.88;;;;;;;-146.27;100.00;84108.09;5082101;28;20071;-67
2023/03/29 04:39:06;;;;;;;10.27;5.25;;;;;;;-146.27;100.00;84096.06;5078239;28;20066;-67
2023/03/29 04:41:33;;;;;;;8.45;4.13;;;;;;;-146.27;100.00;84132.22;5090769;28;20028;-67
2023/03/29 04:43:59;;;;;;;8.07;4.95;;;;;;;-146.27;100.00;84132.22;5087688;28;20020;-67
2023/03/29 04:46:25;;;;;;;8.35;5.00;;;;;;;-146.27;100.00;84108.09;5085395;28;20100;-67
2023/03/29 04:48:51;;;;;;;8.18;4.35;;;;;;;-146.27;100.00;84047.81;5081890;28;20051;-67
2023/03/29 04:51:17;;;;;;;8.80;4.85;;;;;;;-146.27;100.00;84108.09;5084966;28;20487;-67
2023/03/29 04:53:42;;;;;;;9.27;4.75;;;;;;;-146.27;100.00;84104.09;5091184;28;20090;-66
2023/03/29 04:56:08;;;;;;;11.30;4.93;;;;;;;-146.27;100.00;84100.06;5090315;28;20024;-67
2023/03/29 04:58:33;;;;;;;7.90;4.40;;;;;;;-146.27;100.00;84071.94;5084619;28;20032;-67
2023/03/29 05:00:58;;;;;;;8.32;4.78;;;;;;;-146.27;100.00;84108.09;5082146;28;20028;-67
2023/03/29 05:03:25;;;;;;;9.18;4.97;;;;;;;-146.27;100.00;84090.03;5087166;28;20028;-66
2023/03/29 05:05:51;;;;;;;9.27;4.68;;;;;;;-146.27;100.00;84132.22;5082794;28;20099;-67
2023/03/29 05:08:17;;;;;;;7.43;4.50;;;;;;;-146.27;100.00;84045.81;5071819;28;20498;-67
2023/03/29 05:10:43;;;;;;;12.07;4.57;;;;;;;-146.27;100.00;84047.81;5088287;28;20027;-68
2023/03/29 05:13:10;;;;;;;14.23;5.32;;;;;;;-146.27;100.00;84061.88;5082714;28;20137;-67
2023/03/29 05:15:35;;;;;;;10.30;4.60;;;;;;;-146.27;100.00;84084.00;5086466;28;20067;-67
2023/03/29 05:18:01;;;;;;;8.23;4.05;;;;;;;-146.27;100.00;84035.75;5077760;28;20484;-68
2023/03/29 05:20:27;;;;;;;9.02;5.22;;;;;;;-146.27;100.00;84071.94;5081578;28;20074;-67
2023/03/29 05:22:53;;;;;;;9.35;4.53;;;;;;;-146.27;100.00;84102.09;5082013;28;20158;-67
2023/03/29 05:25:19;;;;;;;8.85;4.40;;;;;;;-146.27;100.00;84041.78;5089094;28;20020;-67
2023/03/29 05:27:44;;;;;;;6.18;4.70;;;;;;;-146.27;100.00;84088.00;5079615;28;20051;-67
2023/03/29 05:30:12;;;;;;;9.30;4.25;;;;;;;-146.27;100.00;84065.91;5091874;28;20471;-68
2023/03/29 05:32:37;;;;;;;14.80;5.80;;;;;;;-146.27;100.00;84065.91;5082335;28;20028;-67
2023/03/29 05:35:03;;;;;;;9.77;5.05;;;;;;;-146.27;100.00;84079.97;5084524;28;20028;-67
2023/03/29 05:37:32;;;;;;;7.22;4.95;;;;;;;-146.27;100.00;84049.84;5081988;28;20024;-66
2023/03/29 05:39:57;;;;;;;9.02;5.03;;;;;;;-146.27;100.00;84039.78;5088941;28;20016;-67
2023/03/29 05:42:23;;;;;;;10.05;4.65;;;;;;;-146.27;100.00;84081.97;5092340;28;20024;-67
2023/03/29 05:44:49;;;;;;;6.15;4.65;;;;;;;-146.27;100.00;84063.91;5087963;28;20078;-65
2023/03/29 05:47:14;;;;;;;8.02;4.95;;;;;;;-146.27;100.00;84084.00;5089786;28;20093;-67
2023/03/29 05:49:39;;;;;;;11.43;5.63;;;;;;;-146.27;100.00;84059.88;5086677;28;20028;-65
2023/03/29 05:52:05;;;;;;;9.15;4.82;;;;;;;-146.27;100.00;84059.88;5081143;28;20385;-66
2023/03/29 05:54:31;;;;;;;13.02;5.60;;;;;;;-146.27;100.00;84079.97;5077633;28;20029;-67
2023/03/29 05:56:56;;;;;;;9.73;5.55;;;;;;;-146.27;100.00;84051.84;5082583;28;20028;-66
2023/03/29 05:59:23;;;;;;;10.73;5.60;;;;;;;-146.27;100.00;84007.63;5082209;28;20016;-66
2023/03/29 06:01:48;;;;;;;15.02;5.82;;;;;;;-146.27;100.00;84019.69;5089242;28;20032;-67
2023/03/29 06:04:14;;;;;;;6.80;5.13;;;;;;;-146.27;100.00;84045.81;5077610;28;20476;-67
2023/03/29 06:06:40;;;;;;;15.50;6.47;;;;;;;-146.27;100.00;84035.75;5086125;28;20025;-67
2023/03/29 06:09:06;;;;;;;9.75;5.55;;;;;;;-146.27;100.00;84049.84;5080541;28;20090;-67
2023/03/29 06:11:32;;;;;;;10.50;5.65;;;;;;;-146.27;100.00;84053.84;5091190;28;20028;-67
2023/03/29 06:13:57;;;;;;;10.60;5.60;;;;;;;-146.27;100.00;84041.78;5085129;28;20392;-68
2023/03/29 06:16:23;;;;;;;9.27;5.30;;;;;;;-146.27;100.00;84045.81;5081745;28;20029;-67
2023/03/29 06:18:49;;;;;;;9.80;5.10;;;;;;;-146.27;100.00;83993.56;5080008;28;20495;-70
2023/03/29 06:21:15;;;;;;;14.23;5.75;;;;;;;-146.27;100.00;84015.66;5081100;28;20062;-69
2023/03/29 06:23:41;;;;;;;13.57;6.25;;;;;;;-146.27;100.00;84043.81;5084108;28;20028;-67
2023/03/29 06:26:06;;;;;;;12.40;5.47;;;;;;;-146.27;100.00;84011.66;5085779;28;20025;-67
2023/03/29 06:28:32;;;;;;;10.60;5.35;;;;;;;-146.27;100.00;83983.50;5084259;28;20027;-67
2023/03/29 06:31:01;;;;;;;10.95;5.63;;;;;;;-146.27;100.00;84013.66;5080172;28;20034;-67
2023/03/29 06:33:28;;;;;;;10.73;5.32;;;;;;;-146.27;100.00;83937.28;5079926;28;20062;-67
2023/03/29 06:35:53;;;;;;;9.18;5.07;;;;;;;-146.27;100.00;84007.63;5082557;28;20031;-67
2023/03/29 06:38:19;;;;;;;14.60;5.40;;;;;;;-146.27;100.00;83977.47;5087732;28;20380;-68
2023/03/29 06:40:46;;;;;;;12.73;5.80;;;;;;;-146.27;100.00;84027.72;5084137;28;20491;-67
2023/03/29 06:43:11;;;;;;;17.75;6.00;;;;;;;-146.27;100.00;84007.63;5084729;28;20035;-68
2023/03/29 06:45:37;;;;;;;15.27;6.55;;;;;;;-146.27;100.00;83979.50;5096664;28;20471;-68
2023/03/29 06:48:05;;;;;;;15.57;6.13;;;;;;;-146.27;100.00;83983.50;5085531;28;20020;-67
2023/03/29 06:50:30;;;;;;;9.77;6.40;;;;;;;-146.27;100.00;83979.50;5085790;28;20123;-66
2023/03/29 06:52:56;;;;;;;14.43;6.45;;;;;;;-146.27;100.00;83965.44;5083026;28;20111;-67
2023/03/29 06:55:23;;;;;;;11.32;6.13;;;;;;;-146.27;100.00;83967.44;5079406;28;20032;-67
2023/03/29 06:57:48;;;;;;;14.35;6.90;;;;;;;-146.27;100.00;83963.41;5083705;28;20495;-67
2023/03/29 07:00:26;;;;;;;13.40;7.03;;;;;;;-146.27;100.00;83951.34;5086353;28;20081;-67
2023/03/29 07:02:53;;;;;;;15.38;6.45;;;;;;;-146.27;100.00;83963.41;5078045;28;20165;-66
2023/03/29 07:05:19;;;;;;;13.27;6.63;;;;;;;-146.27;100.00;83925.22;5088397;28;20059;-67
2023/03/29 07:08:12;;;;;;;13.77;6.97;;;;;;;-146.27;100.00;83943.31;5082012;28;20204;-66
2023/03/29 07:10:44;;;;;;;19.40;7.10;;;;;;;-146.27;100.00;83983.50;5089436;28;20031;-67
2023/03/29 07:13:14;;;;;;;13.88;6.95;;;;;;;-146.27;100.00;83953.38;5087140;28;20404;-68
2023/03/29 07:15:41;;;;;;;14.23;6.78;;;;;;;-146.27;100.00;83907.16;5088610;28;20539;-67
2023/03/29 07:18:10;;;;;;;12.82;6.65;;;;;;;-146.27;100.00;83901.13;5081928;28;20387;-67
2023/03/29 07:20:37;;;;;;;19.23;8.00;;;;;;;-146.27;100.00;83935.28;5082794;28;20494;-66
2023/03/29 07:23:03;;;;;;;18.90;7.20;;;;;;;-146.27;100.00;83923.22;5084035;28;20028;-68
2023/03/29 07:25:29;;;;;;;15.23;7.22;;;;;;;-146.27;100.00;83901.13;5101579;28;20031;-65
2023/03/29 07:27:55;;;;;;;19.33;7.80;;;;;;;-146.27;100.00;83935.28;5079206;28;20029;-66
2023/03/29 07:30:24;;;;;;;17.10;8.25;;;;;;;-146.27;100.00;83931.25;5083952;28;20024;-66
2023/03/29 07:32:51;;;;;;;13.88;7.13;;;;;;;-146.27;100.00;83923.22;5081205;28;20454;-67
2023/03/29 07:35:17;;;;;;;16.92;7.80;;;;;;;-146.27;100.00;83891.06;5083855;28;20085;-67
2023/03/29 07:37:44;;;;;;;22.67;8.32;;;;;;;-146.27;100.00;83915.19;5084082;27;20031;-67
2023/03/29 07:40:15;;;;;;;25.45;6.97;;;;;;;-146.27;100.00;83872.97;5073553;28;20032;-66
2023/03/29 07:42:45;;;;;;;16.88;8.02;;;;;;;-146.27;100.00;83883.03;5079968;28;20042;-66
2023/03/29 07:45:12;;;;;;;18.80;7.82;;;;;;;-146.27;100.00;83846.84;5073957;28;20061;-66
2023/03/29 07:47:39;;;;;;;17.33;8.25;;;;;;;-146.27;100.00;83848.88;5081961;28;20039;-66
2023/03/29 07:50:06;;;;;;;13.82;7.97;;;;;;;-146.27;100.00;83885.03;5079386;28;20354;-66
2023/03/29 07:52:33;;;;;;;23.90;8.27;;;;;;;-146.27;100.00;83826.75;5082575;28;20085;-66
2023/03/29 07:54:58;;;;;;;13.95;7.80;;;;;;;-146.27;100.00;83824.75;5076030;28;20035;-66
2023/03/29 07:57:25;;;;;;;17.08;8.13;;;;;;;-146.27;100.00;83830.78;5078058;28;20029;-67
2023/03/29 07:59:51;;;;;;;21.23;9.25;;;;;;;-146.27;100.00;83822.75;5070870;28;20105;-66
2023/03/29 08:02:18;;;;;;;17.98;9.18;;;;;;;-146.27;100.00;83838.81;5071473;28;20035;-67
2023/03/29 08:04:43;;;;;;;18.85;8.98;;;;;;;-146.27;100.00;83838.81;5081018;28;20023;-67
2023/03/29 08:07:09;;;;;;;18.80;9.32;;;;;;;-146.27;100.00;83814.72;5080697;28;20029;-65
2023/03/29 08:09:35;;;;;;;19.75;9.75;;;;;;;-146.27;100.00;83828.78;5077040;28;20059;-67
2023/03/29 08:12:01;;;;;;;19.65;9.57;;;;;;;-146.27;100.00;83792.59;5076014;28;20463;-67
2023/03/29 08:14:27;;;;;;;22.02;10.07;;;;;;;-146.27;100.00;83770.50;5078613;28;20035;-67
2023/03/29 08:16:53;;;;;;;23.27;10.15;;;;;;;-146.27;100.00;83764.47;5084549;28;20043;-68
2023/03/29 08:19:18;;;;;;;23.50;10.45;;;;;;;-146.27;100.00;83756.44;5089720;28;20036;-67
2023/03/29 08:21:43;;;;;;;22.20;10.98;;;;;;;-146.27;100.00;83754.44;5081737;28;20020;-67
2023/03/29 08:24:09;;;;;;;20.67;10.23;;;;;;;-146.27;100.00;83750.41;5073218;28;20025;-68
2023/03/29 08:26:35;;;;;;;27.98;11.98;;;;;;;-146.27;100.00;83734.31;5086398;28;20085;-68
2023/03/29 08:29:00;;;;;;;26.58;10.73;;;;;;;-146.27;100.00;83666.00;5071678;28;20036;-69
2023/03/29 08:31:26;;;;;;;31.00;11.73;;;;;;;-146.27;100.00;83718.25;5081357;28;20024;-67
2023/03/29 08:33:52;;;;;;;28.05;12.27;;;;;;;-146.27;100.00;83722.28;5076363;28;20140;-67
2023/03/29 08:36:17;;;;;;;28.33;13.00;;;;;;;-146.27;100.00;83700.16;5081761;28;20031;-68
2023/03/29 08:38:44;;;;;;;25.58;11.88;;;;;;;-146.27;100.00;83670.03;5080294;28;20380;-67
2023/03/29 08:41:40;;;;;;;25.23;12.10;;;;;;;-146.27;100.00;83668.00;5071122;28;20342;-67
2023/03/29 08:44:32;;;;;;;28.63;11.38;;;;;;;-146.27;100.00;83653.94;5091551;28;20035;-67
2023/03/29 08:47:06;;;;;;;26.60;12.85;;;;;;;-146.27;100.00;83629.84;5091708;28;20020;-67
2023/03/29 08:49:33;;;;;;;24.92;11.48;;;;;;;-146.27;100.00;83645.91;5090033;28;20066;-67
2023/03/29 08:52:04;;;;;;;28.95;11.75;;;;;;;-146.27;100.00;83674.03;5098859;28;20024;-67
2023/03/29 08:54:51;;;;;;;23.17;11.60;;;;;;;-146.27;100.00;83696.16;5087371;28;20035;-68
2023/03/29 08:57:27;;;;;;;29.13;11.57;;;;;;;-146.27;100.00;83657.97;5071349;28;20150;-67
2023/03/29 08:59:56;;;;;;;27.15;12.60;;;;;;;-146.27;100.00;83657.97;5074686;28;20024;-67
2023/03/29 09:02:29;;;;;;;29.45;13.35;;;;;;;-146.27;100.00;83682.09;5075082;28;20027;-68
2023/03/29 09:05:06;;;;;;;33.65;14.02;;;;;;;-146.27;100.00;83633.84;5081219;28;20035;-68
2023/03/29 09:07:31;;;;;;;27.10;13.30;;;;;;;-146.27;100.00;83662.00;5076739;28;20472;-68
2023/03/29 09:09:57;;;;;;;30.95;12.88;;;;;;;-146.27;100.00;83674.03;5084101;28;20038;-67
2023/03/29 09:12:42;;;;;;;23.17;12.55;;;;;;;-146.27;100.00;83682.09;5094488;28;20024;-66
2023/03/29 09:15:18;;;;;;;22.48;11.85;;;;;;;-146.27;100.00;83670.03;5095131;28;20028;-67
2023/03/29 09:17:46;;;;;;;25.27;11.68;;;;;;;-146.27;100.00;83645.91;5095069;28;20034;-67
2023/03/29 09:20:26;;;;;;;30.42;10.75;;;;;;;-146.27;100.00;83549.47;5094688;28;20024;-68
2023/03/29 09:22:57;;;;;;;22.42;11.23;;;;;;;-146.27;100.00;83593.66;5090502;28;20031;-67
2023/03/29 09:25:35;;;;;;;18.92;10.32;;;;;;;-146.27;100.00;83557.50;5094995;28;20016;-67
2023/03/29 09:28:28;;;;;;;22.55;11.07;;;;;;;-146.27;100.00;83551.47;5086663;28;20463;-66
2023/03/29 09:31:11;;;;;;;23.27;11.90;;;;;;;-146.27;100.00;83617.78;5086774;28;20111;-67
2023/03/29 09:33:43;;;;;;;20.17;11.05;;;;;;;-146.27;100.00;83635.88;5094807;28;20059;-67
2023/03/29 09:36:16;;;;;;;19.70;10.82;;;;;;;-146.27;100.00;83593.66;5094669;28;20040;-67
2023/03/29 09:38:45;;;;;;;;;;;;;;;-146.27;100.00;83601.72;5084561;28;20035;-67
2023/03/29 09:41:40;;;;;;;23.05;11.25;;;;;;;-146.27;100.00;83637.88;5094691;28;20324;-67
2023/03/29 09:44:19;;;;;;;22.13;11.23;;;;;;;-146.27;100.00;83623.81;5094576;28;20080;-67
2023/03/29 09:46:52;;;;;;;23.58;11.00;;;;;;;-146.27;100.00;83599.69;5085560;28;20429;-67
2023/03/29 09:49:20;;;;;;;;;;;;;;;-146.27;100.00;83643.91;5081848;28;20081;-67
2023/03/29 09:51:48;;;;;;;24.30;11.77;;;;;;;-146.27;100.00;83637.88;5090622;28;19916;-67
2023/03/29 09:54:13;;;;;;;20.58;11.57;;;;;;;-146.27;100.00;83573.56;5085559;28;20028;-66
2023/03/29 09:56:39;;;;;;;27.20;12.23;;;;;;;-146.27;100.00;83595.69;5094386;28;20418;-67
2023/03/29 09:59:06;;;;;;;17.33;11.30;;;;;;;-146.27;100.00;83595.69;5094260;28;20020;-67
2023/03/29 10:01:37;;;;;;;18.27;10.65;;;;;;;-146.27;100.00;83521.34;5087202;28;20456;-67
2023/03/29 10:04:06;;;;;;;19.27;11.30;;;;;;;-146.27;100.00;83597.69;5088924;28;20024;-67
2023/03/29 10:06:33;;;;;;;18.45;10.52;;;;;;;-146.27;100.00;83589.66;5094164;28;20016;-68
2023/03/29 10:08:58;;;;;;;18.77;11.25;;;;;;;-146.27;100.00;83579.59;5092285;28;20395;-67
2023/03/29 10:11:33;;;;;;;23.17;12.90;;;;;;;-146.27;100.00;83547.44;5092496;28;20057;-67
2023/03/29 10:14:05;;;;;;;26.52;12.45;;;;;;;-146.27;100.00;83561.53;5093199;28;20023;-67
2023/03/29 10:16:38;;;;;;;19.92;11.95;;;;;;;-146.27;100.00;83529.38;5083669;28;20028;-66
2023/03/29 10:19:18;;;;;;;14.80;10.27;;;;;;;-146.27;100.00;83521.34;5088137;28;20107;-66
2023/03/29 10:21:47;;;;;;;18.88;11.40;;;;;;;-146.27;100.00;83479.13;5086445;28;20028;-66
2023/03/29 10:24:20;;;;;;;16.42;10.43;;;;;;;-146.27;100.00;83509.28;5084114;28;20054;-66
2023/03/29 10:26:46;;;;;;;18.83;11.73;;;;;;;-146.27;100.00;83541.41;5093861;28;20050;-66
2023/03/29 10:29:13;;;;;;;21.15;11.55;;;;;;;-146.27;100.00;83545.44;5081617;28;20275;-67
2023/03/29 10:31:41;;;;;;;16.55;12.35;;;;;;;-146.27;100.00;83539.41;5084409;28;20020;-67
2023/03/29 10:34:09;;;;;;;18.33;13.98;;;;;;;-146.27;100.00;83593.66;5072996;28;20020;-67
2023/03/29 10:36:40;;;;;;;19.13;13.98;;;;;;;-146.27;100.00;83549.47;5088539;28;20047;-66
2023/03/29 10:39:08;;;;;;;17.48;12.55;;;;;;;-146.27;100.00;83565.53;5093500;28;20092;-67
2023/03/29 10:41:34;;;;;;;19.40;11.93;;;;;;;-146.27;100.00;83573.56;5093454;28;20039;-66
2023/03/29 10:44:00;;;;;;;19.30;12.30;;;;;;;-146.27;100.00;83571.56;5088042;28;20020;-66
2023/03/29 10:46:32;;;;;;;17.73;12.98;;;;;;;-146.27;100.00;83601.72;5082104;28;20035;-67
2023/03/29 10:49:14;;;;;;;21.13;14.48;;;;;;;-146.27;100.00;83599.69;5074595;28;20523;-66
2023/03/29 10:51:48;;;;;;;23.63;15.65;;;;;;;-146.27;100.00;83643.91;5073476;28;20459;-66
2023/03/29 10:54:16;;;;;;;31.52;17.80;;;;;;;-146.27;100.00;83585.63;5083973;28;20123;-66
2023/03/29 10:56:47;;;;;;;26.73;16.65;;;;;;;-146.27;100.00;83581.59;5093211;28;20035;-66
2023/03/29 10:59:26;;;;;;;31.02;20.25;;;;;;;-146.27;100.00;83517.31;5093120;28;20035;-67
2023/03/29 11:02:00;;;;;;;34.10;21.67;;;;;;;-146.27;100.00;83509.28;5077417;28;20503;-67
2023/03/29 11:04:46;;;;;;;42.85;23.38;;;;;;;-146.27;100.00;83543.44;5072728;28;20147;-66
2023/03/29 11:07:18;;;;;;;34.95;22.20;;;;;;;-146.27;100.00;83529.38;5072709;28;20028;-66
2023/03/29 11:09:43;;;;;;;33.88;21.90;;;;;;;-146.27;100.00;83571.56;5084831;28;20090;-67
2023/03/29 11:12:19;;;;;;;32.03;21.50;;;;;;;-146.27;100.00;83505.25;5092801;28;20032;-67
2023/03/29 11:15:06;;;;;;;37.47;21.92;;;;;;;-146.27;100.00;83521.34;5086275;28;20065;-67
2023/03/29 11:18:01;;;;;;;35.00;23.45;;;;;;;-146.27;100.00;83529.38;5072525;28;20496;-66